Time;durP1;ratioP1;P1;durP2;ratioP2;P2;SDS_P1;SDS_P2;PMS_P1;PMS_P2;Temp;Humidity;BMP_temperature;BMP_pressure;BME280_temperature;BME280_humidity;BME280_pressure;Samples;Min_cycle;Max_cycle;Signal;HPM_P1;HPM_P2
2022/07/22 00:02:07;;;;;;;12.60;9.93;;;;;;;;;;5033872;28;20400;-49
2022/07/22 00:04:33;;;;;;;12.63;11.00;;;;;;;;;;5035856;28;20405;-51
2022/07/22 00:06:59;;;;;;;11.90;9.17;;;;;;;;;;5034070;28;20759;-50
2022/07/22 00:09:25;;;;;;;13.40;9.50;;;;;;;;;;5045272;28;20543;-49
2022/07/22 00:11:51;;;;;;;10.60;9.50;;;;;;;;;;5042942;28;20932;-50
2022/07/22 00:14:17;;;;;;;11.30;9.47;;;;;;;;;;5033203;28;20438;-50
2022/07/22 00:16:43;;;;;;;13.83;9.50;;;;;;;;;;5040414;28;20398;-50
2022/07/22 00:19:09;;;;;;;16.13;9.97;;;;;;;;;;5033599;28;20973;-49
2022/07/22 00:21:35;;;;;;;13.33;9.70;;;;;;;;;;5039793;28;20426;-50
2022/07/22 00:24:01;;;;;;;10.20;9.20;;;;;;;;;;5033568;28;20423;-49
2022/07/22 00:26:27;;;;;;;7.80;6.73;;;;;;;;;;5036861;28;20411;-50
2022/07/22 00:28:53;;;;;;;7.27;6.60;;;;;;;;;;5038958;28;20438;-49
2022/07/22 00:31:19;;;;;;;8.40;6.10;;;;;;;;;;5037305;28;20946;-50
2022/07/22 00:33:45;;;;;;;9.50;7.30;;;;;;;;;;5039093;28;20487;-49
2022/07/22 00:36:11;;;;;;;7.90;7.20;;;;;;;;;;5044576;28;20420;-49
2022/07/22 00:38:38;;;;;;;15.23;6.70;;;;;;;;;;5034349;28;20548;-49
2022/07/22 00:41:04;;;;;;;11.00;6.73;;;;;;;;;;5047586;28;20407;-49
2022/07/22 00:43:48;;;;;;;6.43;5.93;;;;;;;;;;5036391;28;20469;-49
2022/07/22 00:46:14;;;;;;;8.10;5.70;;;;;;;;;;5033208;28;20932;-50
2022/07/22 00:48:40;;;;;;;11.17;6.10;;;;;;;;;;5047417;28;20411;-50
2022/07/22 00:51:06;;;;;;;7.83;6.30;;;;;;;;;;5039581;28;20419;-50
2022/07/22 00:53:32;;;;;;;6.80;6.20;;;;;;;;;;5041036;28;20404;-50
2022/07/22 00:55:58;;;;;;;8.70;7.10;;;;;;;;;;5033683;28;20481;-49
2022/07/22 00:58:24;;;;;;;17.33;7.37;;;;;;;;;;5042498;28;20414;-49
2022/07/22 01:00:50;;;;;;;8.17;7.17;;;;;;;;;;5033106;28;20773;-49
2022/07/22 01:03:16;;;;;;;10.40;8.47;;;;;;;;;;5032845;28;20421;-51
2022/07/22 01:05:42;;;;;;;8.97;8.10;;;;;;;;;;5033995;28;20433;-50
2022/07/22 01:08:09;;;;;;;11.37;8.17;;;;;;;;;;5036538;28;21019;-49
2022/07/22 01:10:36;;;;;;;11.93;9.60;;;;;;;;;;5039984;28;20775;-50
2022/07/22 01:13:02;;;;;;;11.73;8.90;;;;;;;;;;5043988;28;20439;-50
2022/07/22 01:15:28;;;;;;;9.10;8.17;;;;;;;;;;5037324;28;20434;-49
2022/07/22 01:17:54;;;;;;;8.60;7.73;;;;;;;;;;5031344;28;20819;-49
2022/07/22 01:20:20;;;;;;;8.83;7.93;;;;;;;;;;5032106;28;20445;-49
2022/07/22 01:22:46;;;;;;;11.83;7.63;;;;;;;;;;5031736;28;20420;-50
2022/07/22 01:25:13;;;;;;;9.87;8.83;;;;;;;;;;5040677;28;20489;-50
2022/07/22 01:27:38;;;;;;;9.07;8.17;;;;;;;;;;5032185;28;20415;-50
2022/07/22 01:30:05;;;;;;;10.60;8.00;;;;;;;;;;5045994;28;20455;-49
2022/07/22 01:32:31;;;;;;;18.10;9.13;;;;;;;;;;5031418;28;20432;-49
2022/07/22 01:34:58;;;;;;;18.87;8.43;;;;;;;;;;5036849;28;20398;-49
2022/07/22 01:37:24;;;;;;;15.60;8.73;;;;;;;;;;5043488;28;20402;-51
2022/07/22 01:39:50;;;;;;;15.87;8.77;;;;;;;;;;5045332;28;20423;-50
2022/07/22 01:42:16;;;;;;;13.27;7.70;;;;;;;;;;5032249;28;20392;-49
2022/07/22 01:44:42;;;;;;;9.73;7.90;;;;;;;;;;5037764;28;20430;-49
2022/07/22 01:47:08;;;;;;;11.63;7.90;;;;;;;;;;5034932;28;20426;-50
2022/07/22 01:49:34;;;;;;;12.50;8.07;;;;;;;;;;5030898;28;20462;-51
2022/07/22 01:52:01;;;;;;;9.83;7.83;;;;;;;;;;5050028;28;20566;-49
2022/07/22 01:54:27;;;;;;;14.03;8.27;;;;;;;;;;5031537;28;20423;-50
2022/07/22 01:56:53;;;;;;;13.30;8.20;;;;;;;;;;5032965;28;20459;-50
2022/07/22 01:59:19;;;;;;;17.93;8.47;;;;;;;;;;5033833;28;20534;-50
2022/07/22 02:01:45;;;;;;;12.97;9.70;;;;;;;;;;5042688;28;20435;-50
2022/07/22 02:04:11;;;;;;;15.50;9.00;;;;;;;;;;5031726;28;20420;-50
2022/07/22 02:06:37;;;;;;;11.77;9.83;;;;;;;;;;5034881;28;20513;-50
2022/07/22 02:09:03;;;;;;;12.93;9.60;;;;;;;;;;5031113;28;20432;-50
2022/07/22 02:11:29;;;;;;;12.90;8.43;;;;;;;;;;5032066;28;20776;-51
2022/07/22 02:13:56;;;;;;;10.73;9.07;;;;;;;;;;5030568;28;20424;-50
2022/07/22 02:16:22;;;;;;;10.60;9.43;;;;;;;;;;5043188;28;20398;-50
2022/07/22 02:18:49;;;;;;;13.73;10.43;;;;;;;;;;5031835;28;20413;-50
2022/07/22 02:21:16;;;;;;;13.67;10.00;;;;;;;;;;5032289;28;20389;-50
2022/07/22 02:23:42;;;;;;;12.13;8.63;;;;;;;;;;5031250;28;20413;-51
2022/07/22 02:26:08;;;;;;;16.47;9.70;;;;;;;;;;5037996;28;20937;-49
2022/07/22 02:28:34;;;;;;;12.10;9.83;;;;;;;;;;5030548;28;20888;-51
2022/07/22 02:31:00;;;;;;;20.10;9.47;;;;;;;;;;5034357;28;20427;-49
2022/07/22 02:33:25;;;;;;;11.90;9.67;;;;;;;;;;5030731;28;20481;-50
2022/07/22 02:35:51;;;;;;;16.23;10.03;;;;;;;;;;5030769;28;20461;-50
2022/07/22 02:38:17;;;;;;;12.20;9.90;;;;;;;;;;5031796;28;20469;-50
2022/07/22 02:40:44;;;;;;;12.37;8.80;;;;;;;;;;5042444;28;20408;-50
2022/07/22 02:43:10;;;;;;;12.53;9.67;;;;;;;;;;5031244;28;20406;-49
2022/07/22 02:45:36;;;;;;;11.93;8.60;;;;;;;;;;5047367;28;20396;-50
2022/07/22 02:48:03;;;;;;;10.60;9.10;;;;;;;;;;5045440;28;20461;-49
2022/07/22 02:50:29;;;;;;;12.00;9.83;;;;;;;;;;5031524;28;20937;-50
2022/07/22 02:52:55;;;;;;;14.27;9.60;;;;;;;;;;5041153;28;20463;-49
2022/07/22 02:55:21;;;;;;;12.00;8.87;;;;;;;;;;5030909;28;20411;-50
2022/07/22 02:57:47;;;;;;;10.30;9.20;;;;;;;;;;5029945;28;20493;-49
2022/07/22 03:00:14;;;;;;;25.63;9.80;;;;;;;;;;5031709;28;20438;-50
2022/07/22 03:02:40;;;;;;;10.77;9.70;;;;;;;;;;5040179;28;20419;-50
2022/07/22 03:05:06;;;;;;;15.97;8.77;;;;;;;;;;5034618;28;20444;-49
2022/07/22 03:07:32;;;;;;;11.00;8.43;;;;;;;;;;5033789;28;20422;-50
2022/07/22 03:09:58;;;;;;;11.00;7.57;;;;;;;;;;5035476;28;20462;-50
2022/07/22 03:12:24;;;;;;;13.57;8.60;;;;;;;;;;5034894;28;20469;-49
2022/07/22 03:14:50;;;;;;;8.40;7.50;;;;;;;;;;5029884;28;20426;-51
2022/07/22 03:17:16;;;;;;;10.57;7.50;;;;;;;;;;5030766;28;20416;-50
2022/07/22 03:19:42;;;;;;;9.17;6.90;;;;;;;;;;5031547;28;20511;-50
2022/07/22 03:22:08;;;;;;;13.67;7.07;;;;;;;;;;5044006;28;20503;-49
2022/07/22 03:24:34;;;;;;;7.53;5.60;;;;;;;;;;5034618;28;20381;-50
2022/07/22 03:27:00;;;;;;;8.20;6.00;;;;;;;;;;5033493;28;20907;-49
2022/07/22 03:29:26;;;;;;;7.90;5.67;;;;;;;;;;5037666;28;20491;-49
2022/07/22 03:31:52;;;;;;;7.73;5.07;;;;;;;;;;5034038;28;20837;-50
2022/07/22 03:34:18;;;;;;;5.43;4.13;;;;;;;;;;5044824;28;20415;-50
2022/07/22 03:36:44;;;;;;;6.43;4.70;;;;;;;;;;5035254;28;20442;-51
2022/07/22 03:39:10;;;;;;;7.20;5.30;;;;;;;;;;5048722;28;20443;-50
2022/07/22 03:41:36;;;;;;;11.33;4.70;;;;;;;;;;5034899;28;20885;-50
2022/07/22 03:44:02;;;;;;;5.17;4.67;;;;;;;;;;5034193;28;20426;-49
2022/07/22 03:46:28;;;;;;;7.80;4.47;;;;;;;;;;5041855;28;20967;-49
2022/07/22 03:48:54;;;;;;;8.63;4.30;;;;;;;;;;5033566;28;20503;-49
2022/07/22 03:51:20;;;;;;;6.90;4.37;;;;;;;;;;5048701;28;20513;-50
2022/07/22 03:53:46;;;;;;;5.53;4.03;;;;;;;;;;5033861;28;20901;-50
2022/07/22 03:56:12;;;;;;;6.77;4.50;;;;;;;;;;5039390;28;20783;-49
2022/07/22 03:58:38;;;;;;;10.73;5.37;;;;;;;;;;5033231;28;20416;-50
2022/07/22 04:01:04;;;;;;;9.20;4.83;;;;;;;;;;5042247;28;20443;-50
2022/07/22 04:03:30;;;;;;;13.67;6.17;;;;;;;;;;5039046;28;20455;-51
2022/07/22 04:05:56;;;;;;;10.53;5.00;;;;;;;;;;5040952;28;20409;-50
2022/07/22 04:08:22;;;;;;;18.43;5.60;;;;;;;;;;5033098;28;20446;-50
2022/07/22 04:10:48;;;;;;;6.70;5.03;;;;;;;;;;5047996;28;20434;-50
2022/07/22 04:13:14;;;;;;;9.57;5.53;;;;;;;;;;5033046;28;20529;-50
2022/07/22 04:15:40;;;;;;;10.60;5.20;;;;;;;;;;5042357;28;20834;-50
2022/07/22 04:18:06;;;;;;;13.43;6.07;;;;;;;;;;5033333;28;20438;-49
2022/07/22 04:20:32;;;;;;;9.50;5.50;;;;;;;;;;5036430;28;20472;-50
2022/07/22 04:22:58;;;;;;;6.90;5.40;;;;;;;;;;5034129;28;20727;-50
2022/07/22 04:25:24;;;;;;;6.60;5.00;;;;;;;;;;5043058;28;20490;-50
2022/07/22 04:27:52;;;;;;;6.23;5.23;;;;;;;;;;5033551;28;20616;-50
2022/07/22 04:30:18;;;;;;;8.30;5.83;;;;;;;;;;5045020;28;20429;-50
2022/07/22 04:32:44;;;;;;;7.27;6.53;;;;;;;;;;5037062;28;20937;-50
2022/07/22 04:35:10;;;;;;;7.77;5.60;;;;;;;;;;5035208;28;20482;-50
2022/07/22 04:37:36;;;;;;;8.63;5.10;;;;;;;;;;5039920;28;20924;-51
2022/07/22 04:40:02;;;;;;;7.40;5.43;;;;;;;;;;5038474;28;20452;-50
2022/07/22 04:42:28;;;;;;;8.47;5.37;;;;;;;;;;5033214;28;20398;-50
2022/07/22 04:44:54;;;;;;;10.47;5.50;;;;;;;;;;5032416;28;20404;-50
2022/07/22 04:47:20;;;;;;;10.53;4.83;;;;;;;;;;5032900;28;20420;-50
2022/07/22 04:49:46;;;;;;;8.40;5.50;;;;;;;;;;5039528;28;20515;-50
2022/07/22 04:52:12;;;;;;;12.33;5.20;;;;;;;;;;5035418;28;20436;-50
2022/07/22 04:54:38;;;;;;;8.63;5.20;;;;;;;;;;5033827;28;20880;-50
2022/07/22 04:57:04;;;;;;;5.97;5.37;;;;;;;;;;5033309;28;20402;-50
2022/07/22 04:59:30;;;;;;;5.40;4.00;;;;;;;;;;5032890;28;20939;-49
2022/07/22 05:01:56;;;;;;;7.60;5.90;;;;;;;;;;5040966;28;20409;-51
2022/07/22 05:04:22;;;;;;;7.90;5.77;;;;;;;;;;5039122;28;20825;-51
2022/07/22 05:06:48;;;;;;;7.37;4.87;;;;;;;;;;5039218;28;20528;-51
2022/07/22 05:09:14;;;;;;;7.33;5.47;;;;;;;;;;5035174;28;20414;-52
2022/07/22 05:11:40;;;;;;;10.80;5.10;;;;;;;;;;5034849;28;20486;-52
2022/07/22 05:14:05;;;;;;;5.10;4.70;;;;;;;;;;5035067;28;20419;-51
2022/07/22 05:16:31;;;;;;;7.33;4.57;;;;;;;;;;5043213;28;20431;-50
2022/07/22 05:18:57;;;;;;;14.77;5.63;;;;;;;;;;5032182;28;20412;-50
2022/07/22 05:21:23;;;;;;;13.47;5.70;;;;;;;;;;5046023;28;20946;-51
2022/07/22 05:23:49;;;;;;;11.97;5.80;;;;;;;;;;5037638;28;20393;-49
2022/07/22 05:26:16;;;;;;;10.20;4.93;;;;;;;;;;5036565;28;20412;-51
2022/07/22 05:28:41;;;;;;;9.10;5.60;;;;;;;;;;5031732;28;20497;-50
2022/07/22 05:31:07;;;;;;;7.00;5.50;;;;;;;;;;5045581;28;20427;-52
2022/07/22 05:33:33;;;;;;;9.50;5.60;;;;;;;;;;5036260;28;20444;-50
2022/07/22 05:36:00;;;;;;;6.17;5.57;;;;;;;;;;5045783;28;20940;-51
2022/07/22 05:38:26;;;;;;;11.83;6.37;;;;;;;;;;5031600;28;20578;-51
2022/07/22 05:40:52;;;;;;;10.70;5.80;;;;;;;;;;5038014;28;20794;-50
2022/07/22 05:43:18;;;;;;;9.03;5.53;;;;;;;;;;5031577;28;20478;-50
2022/07/22 05:45:44;;;;;;;8.63;5.30;;;;;;;;;;5038782;28;20402;-49
2022/07/22 05:48:10;;;;;;;8.20;5.70;;;;;;;;;;5031098;28;20440;-50
2022/07/22 05:50:36;;;;;;;8.03;5.00;;;;;;;;;;5031457;28;20953;-50
2022/07/22 05:53:02;;;;;;;5.30;4.80;;;;;;;;;;5032056;28;20535;-51
2022/07/22 05:55:28;;;;;;;8.57;4.33;;;;;;;;;;5039049;28;20430;-51
2022/07/22 05:57:54;;;;;;;9.17;5.90;;;;;;;;;;5036936;28;20607;-50
2022/07/22 06:00:20;;;;;;;5.03;4.50;;;;;;;;;;5032601;28;20434;-49
2022/07/22 06:02:46;;;;;;;5.10;4.17;;;;;;;;;;5032198;28;20408;-52
2022/07/22 06:05:12;;;;;;;6.40;4.70;;;;;;;;;;5042204;28;20421;-50
2022/07/22 06:07:39;;;;;;;5.70;4.00;;;;;;;;;;5030461;28;20432;-50
2022/07/22 06:10:05;;;;;;;7.33;3.97;;;;;;;;;;5031271;28;20429;-52
2022/07/22 06:12:31;;;;;;;10.80;4.80;;;;;;;;;;5039172;28;20470;-52
2022/07/22 06:14:57;;;;;;;4.80;4.27;;;;;;;;;;5044660;28;20406;-49
2022/07/22 06:17:23;;;;;;;8.03;4.27;;;;;;;;;;5036710;28;20774;-50
2022/07/22 06:19:49;;;;;;;10.20;4.80;;;;;;;;;;5030542;28;20441;-50
2022/07/22 06:22:17;;;;;;;4.93;4.07;;;;;;;;;;5030740;28;20407;-51
2022/07/22 06:24:43;;;;;;;8.10;4.13;;;;;;;;;;5030908;28;20937;-51
2022/07/22 06:27:09;;;;;;;6.43;4.03;;;;;;;;;;5042964;28;20433;-51
2022/07/22 06:29:35;;;;;;;6.93;4.33;;;;;;;;;;5035458;28;20445;-51
2022/07/22 06:32:01;;;;;;;6.87;4.30;;;;;;;;;;5045762;28;20467;-50
2022/07/22 06:34:27;;;;;;;4.03;3.53;;;;;;;;;;5036498;28;20914;-50
2022/07/22 06:36:53;;;;;;;5.00;3.87;;;;;;;;;;5031158;28;20460;-50
2022/07/22 06:39:19;;;;;;;9.03;4.63;;;;;;;;;;5031784;28;20658;-51
2022/07/22 06:41:45;;;;;;;4.70;4.30;;;;;;;;;;5030920;28;20429;-50
2022/07/22 06:44:11;;;;;;;6.70;3.40;;;;;;;;;;5031642;28;20449;-51
2022/07/22 06:46:37;;;;;;;10.00;4.93;;;;;;;;;;5033148;28;20419;-51
2022/07/22 06:49:03;;;;;;;7.13;3.60;;;;;;;;;;5030091;28;20449;-51
2022/07/22 06:51:29;;;;;;;3.37;3.03;;;;;;;;;;5041766;28;20428;-52
2022/07/22 06:53:55;;;;;;;5.53;3.57;;;;;;;;;;5046364;28;20452;-52
2022/07/22 06:56:21;;;;;;;5.23;3.30;;;;;;;;;;5036389;28;20476;-52
2022/07/22 06:58:47;;;;;;;3.10;2.90;;;;;;;;;;5041735;28;20441;-50
2022/07/22 07:01:13;;;;;;;4.37;2.90;;;;;;;;;;5035475;28;20410;-51
2022/07/22 07:03:39;;;;;;;5.13;3.63;;;;;;;;;;5040709;28;20427;-51
2022/07/22 07:06:07;;;;;;;5.43;3.20;;;;;;;;;;5034470;28;20433;-50
2022/07/22 07:08:33;;;;;;;6.83;3.47;;;;;;;;;;5049027;28;20535;-49
2022/07/22 07:10:59;;;;;;;5.23;3.30;;;;;;;;;;5038934;28;20508;-49
2022/07/22 07:13:25;;;;;;;4.60;3.33;;;;;;;;;;5048422;28;20544;-50
2022/07/22 07:15:51;;;;;;;3.07;2.80;;;;;;;;;;5039389;28;20780;-50
2022/07/22 07:18:17;;;;;;;7.40;3.80;;;;;;;;;;5034638;28;20433;-50
2022/07/22 07:20:43;;;;;;;5.13;3.13;;;;;;;;;;5038758;28;20784;-51
2022/07/22 07:23:09;;;;;;;2.30;2.10;;;;;;;;;;5040313;28;20418;-49
2022/07/22 07:25:35;;;;;;;4.70;2.83;;;;;;;;;;5033822;28;20837;-50
2022/07/22 07:28:02;;;;;;;2.97;2.77;;;;;;;;;;5038364;28;20481;-49
2022/07/22 07:30:28;;;;;;;3.60;2.63;;;;;;;;;;5045673;28;20468;-50
2022/07/22 07:32:54;;;;;;;3.17;2.27;;;;;;;;;;5032964;28;20466;-50
2022/07/22 07:35:20;;;;;;;4.60;2.77;;;;;;;;;;5041700;28;20442;-49
2022/07/22 07:37:47;;;;;;;3.73;3.10;;;;;;;;;;5037618;28;20447;-50
2022/07/22 07:40:13;;;;;;;3.57;2.63;;;;;;;;;;5035847;28;20488;-51
2022/07/22 07:42:39;;;;;;;7.17;3.03;;;;;;;;;;5034279;28;20477;-50
2022/07/22 07:45:05;;;;;;;4.90;2.70;;;;;;;;;;5039293;28;20429;-49
2022/07/22 07:47:31;;;;;;;5.47;3.17;;;;;;;;;;5047400;28;20469;-50
2022/07/22 07:50:00;;;;;;;5.20;3.63;;;;;;;;;;5036754;28;20510;-50
2022/07/22 07:52:26;;;;;;;5.10;3.53;;;;;;;;;;5034027;28;20472;-49
2022/07/22 07:54:55;;;;;;;3.77;3.47;;;;;;;;;;5042257;28;20421;-49
2022/07/22 07:57:21;;;;;;;4.23;3.83;;;;;;;;;;5045352;28;20446;-50
2022/07/22 07:59:47;;;;;;;6.00;4.93;;;;;;;;;;5037451;28;20958;-50
2022/07/22 08:02:13;;;;;;;7.90;5.63;;;;;;;;;;5046806;28;20461;-50
2022/07/22 08:04:39;;;;;;;6.03;5.50;;;;;;;;;;5054235;28;20397;-49
2022/07/22 08:07:05;;;;;;;6.20;5.60;;;;;;;;;;5049302;28;20447;-49
2022/07/22 08:09:32;;;;;;;7.50;6.30;;;;;;;;;;5048993;28;20800;-50
2022/07/22 08:11:58;;;;;;;6.83;6.23;;;;;;;;;;5043400;28;20824;-50
2022/07/22 08:14:24;;;;;;;8.20;6.63;;;;;;;;;;5024180;28;20427;-49
2022/07/22 08:16:50;;;;;;;7.63;5.53;;;;;;;;;;5028853;28;20434;-50
2022/07/22 08:19:16;;;;;;;6.53;5.00;;;;;;;;;;5053952;28;20792;-49
2022/07/22 08:21:42;;;;;;;7.47;5.53;;;;;;;;;;5046698;28;20834;-50
2022/07/22 08:24:11;;;;;;;8.07;5.70;;;;;;;;;;5033547;28;20407;-51
2022/07/22 08:26:37;;;;;;;9.93;7.90;;;;;;;;;;5045861;28;20470;-50
2022/07/22 08:29:05;;;;;;;12.60;9.37;;;;;;;;;;5033495;28;20769;-50
2022/07/22 08:31:34;;;;;;;12.90;9.53;;;;;;;;;;5038018;28;20448;-51
2022/07/22 08:34:01;;;;;;;14.23;8.83;;;;;;;;;;5051518;28;20410;-50
2022/07/22 08:36:28;;;;;;;10.13;8.27;;;;;;;;;;5033459;28;20439;-50
2022/07/22 08:38:54;;;;;;;11.57;8.90;;;;;;;;;;5033204;28;20459;-50
2022/07/22 08:41:21;;;;;;;10.73;9.63;;;;;;;;;;5050180;28;20435;-52
2022/07/22 08:43:47;;;;;;;14.00;11.20;;;;;;;;;;5043601;28;20451;-52
2022/07/22 08:46:13;;;;;;;11.23;10.13;;;;;;;;;;5053638;28;20437;-51
2022/07/22 08:48:39;;;;;;;10.20;8.53;;;;;;;;;;5035314;28;20444;-49
2022/07/22 08:51:06;;;;;;;9.20;7.60;;;;;;;;;;5041269;28;20434;-52
2022/07/22 08:53:32;;;;;;;10.27;9.10;;;;;;;;;;5033484;28;20516;-49
2022/07/22 08:55:58;;;;;;;11.67;10.47;;;;;;;;;;5031535;28;20990;-52
2022/07/22 08:58:25;;;;;;;14.30;9.50;;;;;;;;;;5034179;28;20467;-51
2022/07/22 09:01:07;;;;;;;8.33;7.53;;;;;;;;;;5032233;28;20405;-50
2022/07/22 09:03:33;;;;;;;12.20;8.23;;;;;;;;;;5032271;28;21135;-50
2022/07/22 09:06:00;;;;;;;9.73;8.83;;;;;;;;;;5042924;28;20919;-50
2022/07/22 09:08:26;;;;;;;11.30;9.97;;;;;;;;;;5033422;28;20435;-51
2022/07/22 09:10:52;;;;;;;12.10;9.90;;;;;;;;;;5053644;28;20484;-50
2022/07/22 09:13:19;;;;;;;12.10;8.27;;;;;;;;;;5040869;28;20466;-50
2022/07/22 09:15:49;;;;;;;13.70;10.63;;;;;;;;;;5041136;28;20787;-51
2022/07/22 09:18:16;;;;;;;12.37;11.00;;;;;;;;;;5044150;28;20555;-51
2022/07/22 09:20:43;;;;;;;11.00;9.50;;;;;;;;;;5045017;28;20432;-50
2022/07/22 09:23:11;;;;;;;11.40;10.33;;;;;;;;;;5045647;28;20447;-51
2022/07/22 09:25:38;;;;;;;11.70;10.03;;;;;;;;;;5037474;28;20429;-51
2022/07/22 09:28:07;;;;;;;13.43;11.23;;;;;;;;;;5033142;28;20460;-50
2022/07/22 09:30:34;;;;;;;13.20;10.83;;;;;;;;;;5044169;28;20427;-51
2022/07/22 09:33:01;;;;;;;13.67;10.87;;;;;;;;;;5038262;28;20475;-50
2022/07/22 09:35:28;;;;;;;11.40;10.30;;;;;;;;;;5036216;28;20777;-52
2022/07/22 09:37:58;;;;;;;10.90;9.80;;;;;;;;;;5039814;28;20514;-51
2022/07/22 09:40:25;;;;;;;11.00;9.37;;;;;;;;;;5045152;28;20520;-52
2022/07/22 09:42:52;;;;;;;12.20;10.80;;;;;;;;;;5038453;28;20426;-50
2022/07/22 09:45:19;;;;;;;11.77;9.77;;;;;;;;;;5031277;28;20460;-50
2022/07/22 09:47:45;;;;;;;9.57;8.67;;;;;;;;;;5032212;28;20548;-53
2022/07/22 09:50:31;;;;;;;10.07;9.07;;;;;;;;;;5047002;28;20436;-51
2022/07/22 09:52:57;;;;;;;10.37;9.40;;;;;;;;;;5040910;28;20461;-52
2022/07/22 09:55:24;;;;;;;11.40;10.30;;;;;;;;;;5045693;28;20428;-49
2022/07/22 09:57:51;;;;;;;9.67;8.77;;;;;;;;;;5040453;28;20456;-54
2022/07/22 10:00:18;;;;;;;11.13;10.03;;;;;;;;;;5032298;28;20917;-50
2022/07/22 10:02:47;;;;;;;10.67;9.07;;;;;;;;;;5036974;28;20571;-50
2022/07/22 10:05:14;;;;;;;11.00;10.00;;;;;;;;;;5043957;28;20517;-51
2022/07/22 10:07:44;;;;;;;11.73;8.90;;;;;;;;;;5036147;28;20422;-51
2022/07/22 10:10:11;;;;;;;8.80;7.90;;;;;;;;;;5045899;28;20427;-50
2022/07/22 10:12:38;;;;;;;10.10;9.10;;;;;;;;;;5050841;28;21036;-51
2022/07/22 10:15:04;;;;;;;9.47;8.57;;;;;;;;;;5038512;28;20414;-50
2022/07/22 10:17:30;;;;;;;10.63;9.37;;;;;;;;;;5040598;28;20601;-52
2022/07/22 10:19:57;;;;;;;9.60;8.60;;;;;;;;;;5039884;28;20428;-51
2022/07/22 10:22:41;;;;;;;10.13;9.23;;;;;;;;;;5047480;28;20467;-52
2022/07/22 10:25:08;;;;;;;10.00;9.00;;;;;;;;;;5041596;28;20433;-48
2022/07/22 10:27:46;;;;;;;9.23;8.30;;;;;;;;;;5049613;28;20432;-51
2022/07/22 10:30:17;;;;;;;17.33;9.37;;;;;;;;;;5039727;28;20438;-49
2022/07/22 10:32:43;;;;;;;10.00;9.00;;;;;;;;;;5045569;28;20468;-49
2022/07/22 10:35:09;;;;;;;10.30;9.37;;;;;;;;;;5039564;28;20420;-50
2022/07/22 10:37:37;;;;;;;10.63;9.67;;;;;;;;;;5018526;28;20427;-49
2022/07/22 10:40:24;;;;;;;9.43;8.53;;;;;;;;;;5025485;28;20468;-50
2022/07/22 10:43:10;;;;;;;8.60;7.90;;;;;;;;;;5033568;28;20414;-48
2022/07/22 10:45:41;;;;;;;9.53;8.63;;;;;;;;;;5038017;28;20421;-48
2022/07/22 10:48:20;;;;;;;10.80;9.37;;;;;;;;;;5053176;28;20478;-48
2022/07/22 10:50:49;;;;;;;10.67;9.50;;;;;;;;;;5038422;28;20420;-50
2022/07/22 10:53:20;;;;;;;10.00;9.00;;;;;;;;;;5038236;28;20568;-49
2022/07/22 10:55:59;;;;;;;10.83;8.73;;;;;;;;;;5032691;28;20997;-48
2022/07/22 10:58:35;;;;;;;11.10;8.90;;;;;;;;;;5022530;28;20425;-49
2022/07/22 11:01:06;;;;;;;10.77;9.67;;;;;;;;;;5034034;28;20447;-50
2022/07/22 11:03:32;;;;;;;13.23;9.67;;;;;;;;;;5045651;28;20467;-50
2022/07/22 11:06:18;;;;;;;9.63;8.73;;;;;;;;;;5034791;28;20916;-50
2022/07/22 11:08:45;;;;;;;9.77;8.77;;;;;;;;;;5035182;28;20446;-50
2022/07/22 11:11:11;;;;;;;10.87;9.80;;;;;;;;;;5031637;28;20406;-50
2022/07/22 11:13:38;;;;;;;9.03;8.13;;;;;;;;;;5031352;28;20461;-50
2022/07/22 11:16:20;;;;;;;10.67;8.60;;;;;;;;;;5042634;28;20429;-50
2022/07/22 11:18:52;;;;;;;11.33;7.80;;;;;;;;;;5051059;28;20428;-50
2022/07/22 11:21:22;;;;;;;11.20;9.50;;;;;;;;;;5048306;28;21004;-49
2022/07/22 11:23:50;;;;;;;9.43;8.53;;;;;;;;;;5051272;28;20452;-50
2022/07/22 11:26:16;;;;;;;9.07;8.10;;;;;;;;;;5034325;28;20446;-50
2022/07/22 11:28:43;;;;;;;9.87;8.97;;;;;;;;;;5047509;28;20521;-50
2022/07/22 11:31:10;;;;;;;9.73;8.00;;;;;;;;;;5050149;28;20412;-50
2022/07/22 11:33:36;;;;;;;10.53;9.03;;;;;;;;;;5043289;28;20476;-49
2022/07/22 11:36:06;;;;;;;9.60;8.30;;;;;;;;;;5036084;28;20436;-49
2022/07/22 11:38:42;;;;;;;9.13;8.23;;;;;;;;;;5029184;28;20453;-50
2022/07/22 11:41:08;;;;;;;10.97;8.47;;;;;;;;;;5035400;28;20434;-49
2022/07/22 11:43:41;;;;;;;10.13;8.93;;;;;;;;;;5033536;28;20437;-51
2022/07/22 11:46:07;;;;;;;11.17;7.80;;;;;;;;;;5032140;28;20912;-50
2022/07/22 11:48:33;;;;;;;8.67;7.77;;;;;;;;;;5035723;28;20478;-48
2022/07/22 11:51:00;;;;;;;8.40;7.50;;;;;;;;;;5048270;28;20442;-49
2022/07/22 11:53:26;;;;;;;10.93;9.83;;;;;;;;;;5036127;28;20471;-50
2022/07/22 11:55:56;;;;;;;10.73;8.33;;;;;;;;;;5043947;28;20453;-50
2022/07/22 11:58:39;;;;;;;8.87;7.60;;;;;;;;;;5033838;28;20458;-49
2022/07/22 12:01:06;;;;;;;9.43;7.43;;;;;;;;;;5032404;28;20422;-50
2022/07/22 12:03:33;;;;;;;8.43;7.63;;;;;;;;;;5045103;28;20442;-49
2022/07/22 12:06:00;;;;;;;9.00;6.57;;;;;;;;;;5052830;28;20409;-50
2022/07/22 12:08:26;;;;;;;10.40;8.80;;;;;;;;;;5051134;28;20452;-50
2022/07/22 12:10:52;;;;;;;9.43;8.50;;;;;;;;;;5041421;28;20447;-51
2022/07/22 12:13:19;;;;;;;10.50;7.30;;;;;;;;;;5033714;28;20556;-51
2022/07/22 12:15:45;;;;;;;7.90;7.00;;;;;;;;;;5033648;28;20489;-50
2022/07/22 12:18:24;;;;;;;9.20;6.70;;;;;;;;;;5054059;28;20981;-51
2022/07/22 12:20:50;;;;;;;7.40;6.67;;;;;;;;;;5053100;28;20393;-50
2022/07/22 12:23:17;;;;;;;9.10;7.13;;;;;;;;;;5053260;28;20441;-49
2022/07/22 12:25:59;;;;;;;7.63;7.00;;;;;;;;;;5051660;28;20429;-50
2022/07/22 12:28:25;;;;;;;8.83;7.93;;;;;;;;;;5013945;28;20444;-50
2022/07/22 12:30:52;;;;;;;8.93;7.80;;;;;;;;;;5013825;28;20409;-50
2022/07/22 12:33:19;;;;;;;7.93;6.90;;;;;;;;;;5014502;28;20508;-50
2022/07/22 12:35:57;;;;;;;7.00;6.40;;;;;;;;;;5034372;28;20507;-50
2022/07/22 12:38:23;;;;;;;10.67;7.43;;;;;;;;;;5042026;28;20497;-50
2022/07/22 12:40:49;;;;;;;8.23;7.37;;;;;;;;;;5033315;28;20464;-50
2022/07/22 12:43:15;;;;;;;8.90;8.00;;;;;;;;;;5033415;28;20410;-50
2022/07/22 12:45:42;;;;;;;8.33;7.53;;;;;;;;;;5039346;28;20788;-50
2022/07/22 12:48:09;;;;;;;9.33;7.40;;;;;;;;;;5053568;28;20425;-49
2022/07/22 12:50:44;;;;;;;7.17;6.47;;;;;;;;;;5048057;28;20505;-49
2022/07/22 12:53:12;;;;;;;7.10;6.40;;;;;;;;;;5053990;28;20440;-49
2022/07/22 12:55:51;;;;;;;7.60;6.83;;;;;;;;;;5052139;28;20508;-50
2022/07/22 12:58:17;;;;;;;10.93;8.00;;;;;;;;;;5053179;28;20425;-49
2022/07/22 13:00:44;;;;;;;8.20;7.40;;;;;;;;;;5052349;28;20433;-50
2022/07/22 13:03:10;;;;;;;10.00;7.87;;;;;;;;;;5053337;28;20414;-50
2022/07/22 13:05:37;;;;;;;10.70;8.53;;;;;;;;;;5035961;28;20441;-50
2022/07/22 13:08:03;;;;;;;8.93;7.60;;;;;;;;;;5033116;28;20468;-50
2022/07/22 13:10:30;;;;;;;8.43;7.33;;;;;;;;;;5043941;28;20432;-51
2022/07/22 13:12:56;;;;;;;11.13;8.40;;;;;;;;;;5053154;28;20456;-50
2022/07/22 13:15:22;;;;;;;9.90;8.90;;;;;;;;;;5048574;28;20486;-50
2022/07/22 13:17:49;;;;;;;35.87;9.20;;;;;;;;;;5053383;28;20457;-50
2022/07/22 13:20:16;;;;;;;8.80;7.90;;;;;;;;;;5051716;28;20438;-50
2022/07/22 13:22:43;;;;;;;12.97;8.93;;;;;;;;;;5052784;28;20401;-50
2022/07/22 13:25:09;;;;;;;7.70;7.00;;;;;;;;;;5048302;28;20919;-50
2022/07/22 13:27:35;;;;;;;9.00;7.37;;;;;;;;;;5052918;28;20562;-51
2022/07/22 13:30:01;;;;;;;7.63;6.93;;;;;;;;;;5049198;28;20523;-50
2022/07/22 13:32:27;;;;;;;7.33;6.63;;;;;;;;;;5052785;28;20481;-50
2022/07/22 13:34:53;;;;;;;8.43;7.63;;;;;;;;;;5051691;28;20437;-50
2022/07/22 13:37:20;;;;;;;9.67;8.60;;;;;;;;;;5052446;28;20397;-50
2022/07/22 13:39:47;;;;;;;9.93;8.17;;;;;;;;;;5051054;28;20461;-50
2022/07/22 13:42:13;;;;;;;10.73;7.20;;;;;;;;;;5048340;28;20434;-50
2022/07/22 13:44:39;;;;;;;11.30;8.53;;;;;;;;;;5042421;28;20514;-50
2022/07/22 13:47:05;;;;;;;14.20;8.73;;;;;;;;;;5032478;28;20410;-50
2022/07/22 13:49:31;;;;;;;11.20;8.03;;;;;;;;;;5040855;28;20457;-50
2022/07/22 13:51:58;;;;;;;9.97;8.40;;;;;;;;;;5052100;28;20463;-50
2022/07/22 13:54:24;;;;;;;7.67;6.90;;;;;;;;;;5048089;28;20437;-52
2022/07/22 13:56:50;;;;;;;9.90;8.50;;;;;;;;;;5051328;28;20462;-50
2022/07/22 13:59:16;;;;;;;9.47;8.47;;;;;;;;;;5050066;28;20449;-51
2022/07/22 14:01:42;;;;;;;9.33;8.40;;;;;;;;;;5051789;28;20811;-50
2022/07/22 14:04:08;;;;;;;12.93;10.27;;;;;;;;;;5051137;28;20430;-50
2022/07/22 14:06:34;;;;;;;10.63;9.37;;;;;;;;;;5052048;28;20401;-50
2022/07/22 14:09:00;;;;;;;11.47;10.27;;;;;;;;;;5017633;28;20447;-49
2022/07/22 14:11:26;;;;;;;10.10;8.80;;;;;;;;;;5044381;28;20436;-50
2022/07/22 14:13:52;;;;;;;13.70;9.63;;;;;;;;;;5034346;28;20461;-50
2022/07/22 14:16:34;;;;;;;10.30;9.17;;;;;;;;;;5032235;28;20830;-50
2022/07/22 14:19:09;;;;;;;10.93;9.07;;;;;;;;;;5047982;28;20960;-51
2022/07/22 14:21:37;;;;;;;12.57;9.23;;;;;;;;;;5051999;28;20390;-50
2022/07/22 14:24:03;;;;;;;11.00;8.93;;;;;;;;;;5046321;28;20816;-50
2022/07/22 14:26:30;;;;;;;13.47;9.53;;;;;;;;;;5052048;28;20405;-50
2022/07/22 14:28:56;;;;;;;10.80;9.70;;;;;;;;;;5046840;28;20452;-50
2022/07/22 14:31:22;;;;;;;13.13;9.20;;;;;;;;;;5052282;28;20397;-51
2022/07/22 14:33:48;;;;;;;9.43;8.53;;;;;;;;;;5050487;28;20518;-50
2022/07/22 14:36:14;;;;;;;10.10;8.80;;;;;;;;;;5048048;28;20777;-51